TAF Text Data
IDs:
Format:
Raw Decoded Include METAR

Data at: 0742 UTC 07 Dec 2022

KHUL 070520Z 0706/0806 VRB03KT P6SM OVC020
  FM070800 13005KT 6SM -RA BR OVC005
  FM071300 13006KT 2SM -RA BR OVC003 WS020/18040KT